sensor_id;sensor_type;location;lat;lon;timestamp;pressure;altitude;pressure_sealevel;temperature;humidity
71109;BME280;59614;51.012;-1.648;2022-07-18T00:00:09;101220.88;;;19.85;44.75
71109;BME280;59614;51.012;-1.648;2022-07-18T00:02:35;101243.94;;;19.89;44.38
71109;BME280;59614;51.012;-1.648;2022-07-18T00:05:01;101253.59;;;19.93;44.87
71109;BME280;59614;51.012;-1.648;2022-07-18T00:07:26;101265.06;;;19.97;43.95
71109;BME280;59614;51.012;-1.648;2022-07-18T00:09:52;101274.44;;;20.07;44.09
71109;BME280;59614;51.012;-1.648;2022-07-18T00:12:18;101296.97;;;20.03;43.61
71109;BME280;59614;51.012;-1.648;2022-07-18T00:14:43;101302.16;;;20.06;43.58
71109;BME280;59614;51.012;-1.648;2022-07-18T00:17:09;101303.91;;;20.07;43.47
71109;BME280;59614;51.012;-1.648;2022-07-18T00:19:35;101289.03;;;20.00;43.47
71109;BME280;59614;51.012;-1.648;2022-07-18T00:22:01;101279.19;;;19.78;45.19
71109;BME280;59614;51.012;-1.648;2022-07-18T00:24:27;101285.25;;;19.61;45.40
71109;BME280;59614;51.012;-1.648;2022-07-18T00:26:53;101291.84;;;19.52;45.32
71109;BME280;59614;51.012;-1.648;2022-07-18T00:29:18;101298.94;;;19.53;45.49
71109;BME280;59614;51.012;-1.648;2022-07-18T00:31:44;101288.97;;;19.57;44.95
71109;BME280;59614;51.012;-1.648;2022-07-18T00:34:09;101280.28;;;19.52;45.31
71109;BME280;59614;51.012;-1.648;2022-07-18T00:36:35;101277.34;;;19.36;46.11
71109;BME280;59614;51.012;-1.648;2022-07-18T00:39:01;101281.53;;;19.19;46.73
71109;BME280;59614;51.012;-1.648;2022-07-18T00:41:27;101292.22;;;19.19;46.38
71109;BME280;59614;51.012;-1.648;2022-07-18T00:43:53;101306.44;;;19.21;45.96
71109;BME280;59614;51.012;-1.648;2022-07-18T00:46:22;101294.91;;;19.19;45.82
71109;BME280;59614;51.012;-1.648;2022-07-18T00:48:48;101295.03;;;19.16;47.88
71109;BME280;59614;51.012;-1.648;2022-07-18T00:51:14;101287.94;;;18.91;47.66
71109;BME280;59614;51.012;-1.648;2022-07-18T00:53:39;101288.41;;;18.77;48.49
71109;BME280;59614;51.012;-1.648;2022-07-18T00:56:05;101283.72;;;18.84;46.55
71109;BME280;59614;51.012;-1.648;2022-07-18T00:58:31;101292.44;;;18.89;47.42
71109;BME280;59614;51.012;-1.648;2022-07-18T01:00:57;101290.16;;;18.78;48.30
71109;BME280;59614;51.012;-1.648;2022-07-18T01:03:41;101283.47;;;18.66;48.88
71109;BME280;59614;51.012;-1.648;2022-07-18T01:06:07;101282.94;;;18.57;49.34
71109;BME280;59614;51.012;-1.648;2022-07-18T01:08:32;101280.25;;;18.57;48.22
71109;BME280;59614;51.012;-1.648;2022-07-18T01:10:58;101282.75;;;18.61;50.00
71109;BME280;59614;51.012;-1.648;2022-07-18T01:13:23;101276.34;;;18.42;50.83
71109;BME280;59614;51.012;-1.648;2022-07-18T01:15:49;101278.63;;;18.27;51.07
71109;BME280;59614;51.012;-1.648;2022-07-18T01:18:14;101273.50;;;18.21;51.72
71109;BME280;59614;51.012;-1.648;2022-07-18T01:20:40;101273.94;;;18.09;52.22
71109;BME280;59614;51.012;-1.648;2022-07-18T01:23:05;101272.38;;;18.01;52.35
71109;BME280;59614;51.012;-1.648;2022-07-18T01:25:31;101267.22;;;17.95;52.85
71109;BME280;59614;51.012;-1.648;2022-07-18T01:27:57;101269.66;;;18.03;51.21
71109;BME280;59614;51.012;-1.648;2022-07-18T01:30:24;101271.31;;;18.32;49.15
71109;BME280;59614;51.012;-1.648;2022-07-18T01:32:58;101267.34;;;18.19;52.10
71109;BME280;59614;51.012;-1.648;2022-07-18T01:35:24;101268.78;;;18.02;52.45
71109;BME280;59614;51.012;-1.648;2022-07-18T01:37:52;101267.22;;;17.95;52.82
71109;BME280;59614;51.012;-1.648;2022-07-18T01:40:18;101259.47;;;17.87;53.61
71109;BME280;59614;51.012;-1.648;2022-07-18T01:42:43;101255.41;;;17.75;53.61
71109;BME280;59614;51.012;-1.648;2022-07-18T01:45:09;101249.34;;;17.70;53.54
71109;BME280;59614;51.012;-1.648;2022-07-18T01:47:35;101250.38;;;17.66;53.56
71109;BME280;59614;51.012;-1.648;2022-07-18T01:50:00;101253.09;;;17.65;53.31
71109;BME280;59614;51.012;-1.648;2022-07-18T01:52:25;101245.13;;;17.63;53.44
71109;BME280;59614;51.012;-1.648;2022-07-18T01:54:51;101250.38;;;17.66;53.29
71109;BME280;59614;51.012;-1.648;2022-07-18T01:57:16;101247.97;;;17.58;53.57
71109;BME280;59614;51.012;-1.648;2022-07-18T01:59:42;101246.63;;;17.72;53.53
71109;BME280;59614;51.012;-1.648;2022-07-18T02:02:07;101249.97;;;17.79;51.48
71109;BME280;59614;51.012;-1.648;2022-07-18T02:04:33;101249.78;;;18.12;48.90
71109;BME280;59614;51.012;-1.648;2022-07-18T02:07:17;101237.50;;;18.31;48.62
71109;BME280;59614;51.012;-1.648;2022-07-18T02:09:42;101245.91;;;18.46;48.85
71109;BME280;59614;51.012;-1.648;2022-07-18T02:12:07;101249.50;;;18.45;47.80
71109;BME280;59614;51.012;-1.648;2022-07-18T02:14:33;101235.97;;;18.24;51.34
71109;BME280;59614;51.012;-1.648;2022-07-18T02:16:58;101238.03;;;18.16;49.53
71109;BME280;59614;51.012;-1.648;2022-07-18T02:19:24;101243.72;;;18.32;48.61
71109;BME280;59614;51.012;-1.648;2022-07-18T02:21:49;101236.97;;;18.21;52.50
71109;BME280;59614;51.012;-1.648;2022-07-18T02:24:15;101233.34;;;17.97;51.78
71109;BME280;59614;51.012;-1.648;2022-07-18T02:26:40;101227.78;;;17.77;53.61
71109;BME280;59614;51.012;-1.648;2022-07-18T02:29:06;101224.56;;;17.67;53.66
71109;BME280;59614;51.012;-1.648;2022-07-18T02:31:31;101226.50;;;17.62;53.62
71109;BME280;59614;51.012;-1.648;2022-07-18T02:33:56;101215.16;;;17.55;53.58
71109;BME280;59614;51.012;-1.648;2022-07-18T02:36:22;101214.38;;;17.51;53.87
71109;BME280;59614;51.012;-1.648;2022-07-18T02:38:47;101216.69;;;17.62;52.54
71109;BME280;59614;51.012;-1.648;2022-07-18T02:41:13;101213.47;;;17.79;51.69
71109;BME280;59614;51.012;-1.648;2022-07-18T02:43:38;101211.56;;;17.83;51.22
71109;BME280;59614;51.012;-1.648;2022-07-18T02:46:04;101203.75;;;17.77;53.55
71109;BME280;59614;51.012;-1.648;2022-07-18T02:48:30;101207.09;;;17.56;53.96
71109;BME280;59614;51.012;-1.648;2022-07-18T02:50:55;101208.47;;;17.41;54.38
71109;BME280;59614;51.012;-1.648;2022-07-18T02:53:21;101208.72;;;17.34;54.33
71109;BME280;59614;51.012;-1.648;2022-07-18T02:55:49;101197.81;;;17.41;54.44
71109;BME280;59614;51.012;-1.648;2022-07-18T02:58:16;101197.59;;;17.48;54.83
71109;BME280;59614;51.012;-1.648;2022-07-18T03:00:41;101199.84;;;17.33;55.21
71109;BME280;59614;51.012;-1.648;2022-07-18T03:03:07;101193.88;;;17.25;55.64
71109;BME280;59614;51.012;-1.648;2022-07-18T03:05:32;101202.00;;;17.22;55.54
71109;BME280;59614;51.012;-1.648;2022-07-18T03:07:58;101198.44;;;17.21;55.55
71109;BME280;59614;51.012;-1.648;2022-07-18T03:10:23;101195.91;;;17.17;55.53
71109;BME280;59614;51.012;-1.648;2022-07-18T03:12:48;101199.66;;;17.11;56.08
71109;BME280;59614;51.012;-1.648;2022-07-18T03:15:14;101199.88;;;17.03;56.65
71109;BME280;59614;51.012;-1.648;2022-07-18T03:17:39;101195.69;;;16.96;56.68
71109;BME280;59614;51.012;-1.648;2022-07-18T03:20:05;101190.41;;;16.93;56.88
71109;BME280;59614;51.012;-1.648;2022-07-18T03:22:31;101193.16;;;16.90;57.07
71109;BME280;59614;51.012;-1.648;2022-07-18T03:24:58;101194.22;;;16.84;57.46
71109;BME280;59614;51.012;-1.648;2022-07-18T03:27:24;101193.50;;;16.79;57.30
71109;BME280;59614;51.012;-1.648;2022-07-18T03:29:49;101194.47;;;16.76;57.86
71109;BME280;59614;51.012;-1.648;2022-07-18T03:32:14;101187.38;;;16.75;57.12
71109;BME280;59614;51.012;-1.648;2022-07-18T03:34:40;101187.25;;;16.78;57.60
71109;BME280;59614;51.012;-1.648;2022-07-18T03:37:05;101186.84;;;16.94;56.71
71109;BME280;59614;51.012;-1.648;2022-07-18T03:39:31;101183.44;;;16.89;57.18
71109;BME280;59614;51.012;-1.648;2022-07-18T03:41:56;101179.94;;;16.87;57.67
71109;BME280;59614;51.012;-1.648;2022-07-18T03:44:22;101187.25;;;16.78;57.98
71109;BME280;59614;51.012;-1.648;2022-07-18T03:46:47;101187.41;;;16.74;57.68
71109;BME280;59614;51.012;-1.648;2022-07-18T03:49:13;101188.16;;;16.79;57.21
71109;BME280;59614;51.012;-1.648;2022-07-18T03:51:38;101182.06;;;16.75;57.42
71109;BME280;59614;51.012;-1.648;2022-07-18T03:54:03;101184.84;;;16.71;57.47
71109;BME280;59614;51.012;-1.648;2022-07-18T03:56:29;101192.78;;;16.72;57.86
71109;BME280;59614;51.012;-1.648;2022-07-18T03:58:54;101192.03;;;16.68;58.86
71109;BME280;59614;51.012;-1.648;2022-07-18T04:01:20;101187.81;;;16.60;58.74
71109;BME280;59614;51.012;-1.648;2022-07-18T04:03:45;101187.66;;;16.66;58.11
71109;BME280;59614;51.012;-1.648;2022-07-18T04:06:11;101182.88;;;16.77;57.81
71109;BME280;59614;51.012;-1.648;2022-07-18T04:08:36;101182.47;;;16.90;58.13
71109;BME280;59614;51.012;-1.648;2022-07-18T04:11:02;101177.94;;;16.95;56.32
71109;BME280;59614;51.012;-1.648;2022-07-18T04:13:27;101163.16;;;17.11;55.06
71109;BME280;59614;51.012;-1.648;2022-07-18T04:15:52;101170.53;;;17.32;54.28
71109;BME280;59614;51.012;-1.648;2022-07-18T04:18:18;101168.28;;;17.46;53.85
71109;BME280;59614;51.012;-1.648;2022-07-18T04:20:43;101169.78;;;17.55;55.95
71109;BME280;59614;51.012;-1.648;2022-07-18T04:23:09;101172.13;;;17.37;56.60
71109;BME280;59614;51.012;-1.648;2022-07-18T04:25:40;101174.19;;;17.29;55.92
71109;BME280;59614;51.012;-1.648;2022-07-18T04:28:08;101176.78;;;17.31;57.41
71109;BME280;59614;51.012;-1.648;2022-07-18T04:30:34;101166.19;;;17.29;59.40
71109;BME280;59614;51.012;-1.648;2022-07-18T04:33:04;101173.44;;;17.24;60.48
71109;BME280;59614;51.012;-1.648;2022-07-18T04:35:30;101163.69;;;17.23;59.92
71109;BME280;59614;51.012;-1.648;2022-07-18T04:37:56;101170.00;;;17.22;60.71
71109;BME280;59614;51.012;-1.648;2022-07-18T04:40:22;101166.28;;;17.26;60.94
71109;BME280;59614;51.012;-1.648;2022-07-18T04:42:47;101170.63;;;17.28;60.73
71109;BME280;59614;51.012;-1.648;2022-07-18T04:45:13;101162.50;;;17.33;60.14
71109;BME280;59614;51.012;-1.648;2022-07-18T04:47:40;101167.13;;;17.55;56.74
71109;BME280;59614;51.012;-1.648;2022-07-18T04:50:07;101167.41;;;17.72;55.14
71109;BME280;59614;51.012;-1.648;2022-07-18T04:52:40;101175.97;;;17.82;54.58
71109;BME280;59614;51.012;-1.648;2022-07-18T04:55:07;101172.22;;;17.88;54.94
71109;BME280;59614;51.012;-1.648;2022-07-18T04:57:33;101169.06;;;17.77;55.93
71109;BME280;59614;51.012;-1.648;2022-07-18T05:00:00;101172.50;;;17.80;55.42
71109;BME280;59614;51.012;-1.648;2022-07-18T05:02:25;101174.91;;;17.88;55.15
71109;BME280;59614;51.012;-1.648;2022-07-18T05:04:51;101173.97;;;17.89;58.99
71109;BME280;59614;51.012;-1.648;2022-07-18T05:07:16;101176.41;;;17.70;60.61
71109;BME280;59614;51.012;-1.648;2022-07-18T05:09:42;101177.38;;;17.67;60.46
71109;BME280;59614;51.012;-1.648;2022-07-18T05:12:07;101173.72;;;17.70;61.04
71109;BME280;59614;51.012;-1.648;2022-07-18T05:14:32;101166.72;;;17.67;62.89
71109;BME280;59614;51.012;-1.648;2022-07-18T05:16:58;101174.66;;;17.69;64.36
71109;BME280;59614;51.012;-1.648;2022-07-18T05:19:23;101168.41;;;17.70;63.80
71109;BME280;59614;51.012;-1.648;2022-07-18T05:21:49;101173.72;;;17.70;63.85
71109;BME280;59614;51.012;-1.648;2022-07-18T05:24:14;101169.22;;;17.72;64.16
71109;BME280;59614;51.012;-1.648;2022-07-18T05:26:39;101172.38;;;17.83;63.47
71109;BME280;59614;51.012;-1.648;2022-07-18T05:29:05;101169.72;;;17.83;64.26
71109;BME280;59614;51.012;-1.648;2022-07-18T05:31:30;101172.91;;;17.93;61.53
71109;BME280;59614;51.012;-1.648;2022-07-18T05:33:56;101175.56;;;18.20;58.88
71109;BME280;59614;51.012;-1.648;2022-07-18T05:36:21;101173.72;;;18.22;61.77
71109;BME280;59614;51.012;-1.648;2022-07-18T05:38:47;101172.06;;;18.18;63.30
71109;BME280;59614;51.012;-1.648;2022-07-18T05:41:12;101173.72;;;18.22;64.44
71109;BME280;59614;51.012;-1.648;2022-07-18T05:43:37;101163.44;;;18.35;60.70
71109;BME280;59614;51.012;-1.648;2022-07-18T05:46:03;101167.22;;;18.53;61.37
71109;BME280;59614;51.012;-1.648;2022-07-18T05:48:29;101165.31;;;18.57;61.16
71109;BME280;59614;51.012;-1.648;2022-07-18T05:50:54;101160.66;;;18.62;61.16
71109;BME280;59614;51.012;-1.648;2022-07-18T05:53:20;101170.25;;;18.67;60.86
71109;BME280;59614;51.012;-1.648;2022-07-18T05:55:45;101168.44;;;18.68;62.41
71109;BME280;59614;51.012;-1.648;2022-07-18T05:58:11;101164.75;;;18.71;62.73
71109;BME280;59614;51.012;-1.648;2022-07-18T06:00:37;101161.88;;;18.77;59.53
71109;BME280;59614;51.012;-1.648;2022-07-18T06:03:02;101166.16;;;18.81;62.26
71109;BME280;59614;51.012;-1.648;2022-07-18T06:05:28;101164.28;;;18.83;61.83
71109;BME280;59614;51.012;-1.648;2022-07-18T06:07:55;101155.88;;;18.94;59.03
71109;BME280;59614;51.012;-1.648;2022-07-18T06:10:21;101163.34;;;19.08;58.61
71109;BME280;59614;51.012;-1.648;2022-07-18T06:12:47;101162.31;;;19.12;57.83
71109;BME280;59614;51.012;-1.648;2022-07-18T06:15:13;101160.91;;;19.24;58.23
71109;BME280;59614;51.012;-1.648;2022-07-18T06:17:39;101156.38;;;19.26;57.49
71109;BME280;59614;51.012;-1.648;2022-07-18T06:20:05;101154.63;;;19.47;58.29
71109;BME280;59614;51.012;-1.648;2022-07-18T06:22:33;101155.69;;;19.64;59.38
71109;BME280;59614;51.012;-1.648;2022-07-18T06:24:59;101160.13;;;19.65;57.83
71109;BME280;59614;51.012;-1.648;2022-07-18T06:27:25;101158.38;;;19.64;58.71
71109;BME280;59614;51.012;-1.648;2022-07-18T06:29:50;101154.69;;;19.66;59.12
71109;BME280;59614;51.012;-1.648;2022-07-18T06:32:16;101157.84;;;19.76;59.17
71109;BME280;59614;51.012;-1.648;2022-07-18T06:34:41;101162.00;;;19.83;58.73
71109;BME280;59614;51.012;-1.648;2022-07-18T06:37:07;101168.69;;;19.95;58.62
71109;BME280;59614;51.012;-1.648;2022-07-18T06:39:32;101161.97;;;20.05;57.88
71109;BME280;59614;51.012;-1.648;2022-07-18T06:41:57;101158.66;;;20.19;57.30
71109;BME280;59614;51.012;-1.648;2022-07-18T06:44:23;101169.16;;;20.24;57.50
71109;BME280;59614;51.012;-1.648;2022-07-18T06:46:48;101172.91;;;20.41;59.00
71109;BME280;59614;51.012;-1.648;2022-07-18T06:49:14;101169.50;;;20.56;57.34
71109;BME280;59614;51.012;-1.648;2022-07-18T06:51:41;101182.13;;;20.54;57.75
71109;BME280;59614;51.012;-1.648;2022-07-18T06:54:06;101180.97;;;20.60;58.73
71109;BME280;59614;51.012;-1.648;2022-07-18T06:56:31;101180.28;;;20.75;59.36
71109;BME280;59614;51.012;-1.648;2022-07-18T06:58:57;101175.13;;;20.90;59.01
71109;BME280;59614;51.012;-1.648;2022-07-18T07:01:22;101177.72;;;20.91;59.08
71109;BME280;59614;51.012;-1.648;2022-07-18T07:03:48;101168.63;;;21.13;59.28
71109;BME280;59614;51.012;-1.648;2022-07-18T07:06:14;101168.50;;;21.34;58.66
71109;BME280;59614;51.012;-1.648;2022-07-18T07:08:41;101176.75;;;21.31;58.65
71109;BME280;59614;51.012;-1.648;2022-07-18T07:11:06;101167.09;;;21.81;58.63
71109;BME280;59614;51.012;-1.648;2022-07-18T07:13:32;101179.44;;;21.31;59.16
71109;BME280;59614;51.012;-1.648;2022-07-18T07:15:58;101175.72;;;21.33;59.35
71109;BME280;59614;51.012;-1.648;2022-07-18T07:18:23;101180.69;;;21.78;59.31
71109;BME280;59614;51.012;-1.648;2022-07-18T07:20:49;101184.69;;;22.04;58.17
71109;BME280;59614;51.012;-1.648;2022-07-18T07:23:14;101182.41;;;21.79;59.13
71109;BME280;59614;51.012;-1.648;2022-07-18T07:25:40;101178.97;;;21.57;58.44
71109;BME280;59614;51.012;-1.648;2022-07-18T07:28:06;101178.09;;;21.76;57.85
71109;BME280;59614;51.012;-1.648;2022-07-18T07:30:32;101182.94;;;21.50;59.06
71109;BME280;59614;51.012;-1.648;2022-07-18T07:32:59;101184.78;;;21.67;57.82
71109;BME280;59614;51.012;-1.648;2022-07-18T07:35:25;101184.88;;;21.66;58.52
71109;BME280;59614;51.012;-1.648;2022-07-18T07:37:56;101185.09;;;22.14;57.10
71109;BME280;59614;51.012;-1.648;2022-07-18T07:40:23;101179.47;;;22.52;55.35
71109;BME280;59614;51.012;-1.648;2022-07-18T07:42:50;101170.50;;;23.17;53.92
71109;BME280;59614;51.012;-1.648;2022-07-18T07:45:16;101174.03;;;23.34;54.09
71109;BME280;59614;51.012;-1.648;2022-07-18T07:47:42;101169.63;;;23.33;53.65
71109;BME280;59614;51.012;-1.648;2022-07-18T07:50:09;101166.13;;;23.91;53.52
71109;BME280;59614;51.012;-1.648;2022-07-18T07:52:35;101166.41;;;24.17;52.16
71109;BME280;59614;51.012;-1.648;2022-07-18T07:55:01;101163.22;;;24.11;51.85
71109;BME280;59614;51.012;-1.648;2022-07-18T07:57:27;101172.19;;;24.69;51.17
71109;BME280;59614;51.012;-1.648;2022-07-18T07:59:52;101171.97;;;24.58;51.13
71109;BME280;59614;51.012;-1.648;2022-07-18T08:02:18;101163.88;;;24.87;51.46
71109;BME280;59614;51.012;-1.648;2022-07-18T08:04:43;101160.25;;;25.42;49.92
71109;BME280;59614;51.012;-1.648;2022-07-18T08:07:10;101163.97;;;25.12;49.36
71109;BME280;59614;51.012;-1.648;2022-07-18T08:09:36;101150.72;;;26.29;46.61
71109;BME280;59614;51.012;-1.648;2022-07-18T08:12:03;101151.75;;;26.52;47.57
71109;BME280;59614;51.012;-1.648;2022-07-18T08:14:28;101153.38;;;25.37;48.29
71109;BME280;59614;51.012;-1.648;2022-07-18T08:16:54;101152.28;;;24.99;50.07
71109;BME280;59614;51.012;-1.648;2022-07-18T08:19:19;101151.81;;;24.92;51.66
71109;BME280;59614;51.012;-1.648;2022-07-18T08:21:45;101148.03;;;24.95;50.13
71109;BME280;59614;51.012;-1.648;2022-07-18T08:24:10;101151.97;;;25.04;51.24
71109;BME280;59614;51.012;-1.648;2022-07-18T08:26:36;101151.81;;;24.92;51.29
71109;BME280;59614;51.012;-1.648;2022-07-18T08:29:05;101145.94;;;24.86;51.88
71109;BME280;59614;51.012;-1.648;2022-07-18T08:31:30;101150.19;;;24.46;51.68
71109;BME280;59614;51.012;-1.648;2022-07-18T08:33:56;101145.16;;;24.55;52.74
71109;BME280;59614;51.012;-1.648;2022-07-18T08:36:21;101147.69;;;24.58;52.66
71109;BME280;59614;51.012;-1.648;2022-07-18T08:38:47;101149.91;;;24.65;53.31
71109;BME280;59614;51.012;-1.648;2022-07-18T08:41:12;101150.00;;;24.49;52.44
71109;BME280;59614;51.012;-1.648;2022-07-18T08:43:39;101149.63;;;24.27;53.01
71109;BME280;59614;51.012;-1.648;2022-07-18T08:46:05;101145.69;;;24.18;53.95
71109;BME280;59614;51.012;-1.648;2022-07-18T08:48:31;101148.69;;;24.28;53.33
71109;BME280;59614;51.012;-1.648;2022-07-18T08:50:59;101148.31;;;24.19;53.15
71109;BME280;59614;51.012;-1.648;2022-07-18T08:53:24;101142.91;;;24.19;54.59
71109;BME280;59614;51.012;-1.648;2022-07-18T08:55:50;101150.59;;;24.11;53.97
71109;BME280;59614;51.012;-1.648;2022-07-18T08:58:16;101147.50;;;24.03;55.03
71109;BME280;59614;51.012;-1.648;2022-07-18T09:00:43;101147.72;;;24.29;53.93
71109;BME280;59614;51.012;-1.648;2022-07-18T09:03:09;101141.91;;;24.64;53.58
71109;BME280;59614;51.012;-1.648;2022-07-18T09:05:35;101144.59;;;24.78;52.39
71109;BME280;59614;51.012;-1.648;2022-07-18T09:08:14;101148.19;;;25.06;53.36
71109;BME280;59614;51.012;-1.648;2022-07-18T09:13:15;101136.88;;;25.14;51.02
71109;BME280;59614;51.012;-1.648;2022-07-18T09:16:05;101136.38;;;25.75;49.62
71109;BME280;59614;51.012;-1.648;2022-07-18T09:18:33;101134.44;;;26.92;49.41
71109;BME280;59614;51.012;-1.648;2022-07-18T09:21:10;101130.97;;;27.74;46.00
71109;BME280;59614;51.012;-1.648;2022-07-18T09:23:41;101121.75;;;28.79;44.47
71109;BME280;59614;51.012;-1.648;2022-07-18T09:26:07;101118.22;;;28.56;45.73
71109;BME280;59614;51.012;-1.648;2022-07-18T09:28:53;101118.97;;;28.35;44.75
71109;BME280;59614;51.012;-1.648;2022-07-18T09:31:20;101117.19;;;27.41;45.88
71109;BME280;59614;51.012;-1.648;2022-07-18T09:33:56;101119.75;;;27.32;45.77
71109;BME280;59614;51.012;-1.648;2022-07-18T09:36:22;101119.47;;;27.23;46.46
71109;BME280;59614;51.012;-1.648;2022-07-18T09:38:48;101117.78;;;27.34;47.88
71109;BME280;59614;51.012;-1.648;2022-07-18T09:41:13;101114.22;;;27.09;45.54
71109;BME280;59614;51.012;-1.648;2022-07-18T09:43:39;101113.53;;;27.18;46.25
71109;BME280;59614;51.012;-1.648;2022-07-18T09:46:06;101117.72;;;27.47;45.52
71109;BME280;59614;51.012;-1.648;2022-07-18T09:48:31;101121.81;;;27.52;45.59
71109;BME280;59614;51.012;-1.648;2022-07-18T09:51:03;101122.56;;;27.54;46.15
71109;BME280;59614;51.012;-1.648;2022-07-18T09:53:42;101114.88;;;28.52;43.60
71109;BME280;59614;51.012;-1.648;2022-07-18T09:56:12;101105.09;;;29.16;41.43
71109;BME280;59614;51.012;-1.648;2022-07-18T09:58:40;101103.81;;;29.95;41.61
71109;BME280;59614;51.012;-1.648;2022-07-18T10:01:08;101102.31;;;30.43;38.58
71109;BME280;59614;51.012;-1.648;2022-07-18T10:03:34;101101.81;;;30.69;38.05
71109;BME280;59614;51.012;-1.648;2022-07-18T10:06:01;101108.00;;;30.91;37.38
71109;BME280;59614;51.012;-1.648;2022-07-18T10:08:30;101106.00;;;30.93;37.58
71109;BME280;59614;51.012;-1.648;2022-07-18T10:10:58;101104.41;;;31.79;35.88
71109;BME280;59614;51.012;-1.648;2022-07-18T10:13:28;101106.88;;;32.19;32.62
71109;BME280;59614;51.012;-1.648;2022-07-18T10:15:54;101103.72;;;32.14;32.22
71109;BME280;59614;51.012;-1.648;2022-07-18T10:18:22;101109.41;;;32.87;31.95
71109;BME280;59614;51.012;-1.648;2022-07-18T10:23:23;101097.91;;;33.19;31.49
71109;BME280;59614;51.012;-1.648;2022-07-18T10:31:34;101089.69;;;32.37;31.29
71109;BME280;59614;51.012;-1.648;2022-07-18T10:39:16;101084.63;;;29.76;35.66
71109;BME280;59614;51.012;-1.648;2022-07-18T10:47:03;101086.34;;;31.09;33.79
71109;BME280;59614;51.012;-1.648;2022-07-18T11:03:07;101090.94;;;30.79;34.67
71109;BME280;59614;51.012;-1.648;2022-07-18T11:05:35;101075.75;;;30.35;35.74
71109;BME280;59614;51.012;-1.648;2022-07-18T11:16:14;101075.44;;;31.58;32.74
71109;BME280;59614;51.012;-1.648;2022-07-18T11:21:33;101069.72;;;32.83;28.78
71109;BME280;59614;51.012;-1.648;2022-07-18T11:24:01;101071.97;;;33.23;29.13
71109;BME280;59614;51.012;-1.648;2022-07-18T11:26:28;101074.69;;;32.13;30.30
71109;BME280;59614;51.012;-1.648;2022-07-18T11:29:05;101077.75;;;31.43;32.05
71109;BME280;59614;51.012;-1.648;2022-07-18T11:31:35;101074.72;;;31.36;30.74
71109;BME280;59614;51.012;-1.648;2022-07-18T11:34:07;101076.00;;;31.42;30.96
71109;BME280;59614;51.012;-1.648;2022-07-18T11:36:32;101082.03;;;31.75;30.96
71109;BME280;59614;51.012;-1.648;2022-07-18T11:39:00;101068.00;;;31.01;29.93
71109;BME280;59614;51.012;-1.648;2022-07-18T11:41:26;101069.41;;;31.74;29.29
71109;BME280;59614;51.012;-1.648;2022-07-18T11:43:53;101068.72;;;32.56;27.62
71109;BME280;59614;51.012;-1.648;2022-07-18T11:46:24;101058.59;;;33.38;26.07
71109;BME280;59614;51.012;-1.648;2022-07-18T11:49:02;101055.38;;;33.69;25.98
71109;BME280;59614;51.012;-1.648;2022-07-18T11:51:44;101055.09;;;32.92;25.97
71109;BME280;59614;51.012;-1.648;2022-07-18T11:54:11;101064.78;;;32.12;28.50
71109;BME280;59614;51.012;-1.648;2022-07-18T11:56:46;101058.47;;;31.54;28.04
71109;BME280;59614;51.012;-1.648;2022-07-18T11:59:12;101055.97;;;31.14;27.96
71109;BME280;59614;51.012;-1.648;2022-07-18T12:01:38;101051.34;;;31.34;27.28
71109;BME280;59614;51.012;-1.648;2022-07-18T12:04:03;101051.78;;;31.39;26.75
71109;BME280;59614;51.012;-1.648;2022-07-18T12:06:29;101047.03;;;33.26;26.43
71109;BME280;59614;51.012;-1.648;2022-07-18T12:08:56;101049.38;;;32.67;26.31
71109;BME280;59614;51.012;-1.648;2022-07-18T12:14:13;101039.09;;;33.94;25.11
71109;BME280;59614;51.012;-1.648;2022-07-18T12:16:47;101032.16;;;34.76;23.84
71109;BME280;59614;51.012;-1.648;2022-07-18T12:19:17;101023.59;;;34.54;24.33
71109;BME280;59614;51.012;-1.648;2022-07-18T12:26:43;101018.34;;;35.83;23.66
71109;BME280;59614;51.012;-1.648;2022-07-18T12:29:09;101019.13;;;36.95;22.97
71109;BME280;59614;51.012;-1.648;2022-07-18T12:31:45;101019.22;;;35.76;22.70
71109;BME280;59614;51.012;-1.648;2022-07-18T12:34:12;101014.56;;;35.93;23.17
71109;BME280;59614;51.012;-1.648;2022-07-18T12:36:52;101014.78;;;36.14;24.17
71109;BME280;59614;51.012;-1.648;2022-07-18T12:39:29;101016.03;;;35.55;24.51
71109;BME280;59614;51.012;-1.648;2022-07-18T12:41:54;101007.31;;;35.19;23.95
71109;BME280;59614;51.012;-1.648;2022-07-18T12:44:20;101010.91;;;34.10;25.94
71109;BME280;59614;51.012;-1.648;2022-07-18T12:46:46;101008.69;;;35.39;26.29
71109;BME280;59614;51.012;-1.648;2022-07-18T12:49:11;101007.81;;;35.55;23.14
71109;BME280;59614;51.012;-1.648;2022-07-18T12:51:37;101000.72;;;36.49;23.49
71109;BME280;59614;51.012;-1.648;2022-07-18T12:54:02;100996.13;;;37.86;23.60
71109;BME280;59614;51.012;-1.648;2022-07-18T12:56:28;100997.78;;;36.51;23.36
71109;BME280;59614;51.012;-1.648;2022-07-18T12:58:53;100997.78;;;36.97;22.87
71109;BME280;59614;51.012;-1.648;2022-07-18T13:01:19;101000.00;;;37.17;23.10
71109;BME280;59614;51.012;-1.648;2022-07-18T13:03:44;101002.09;;;35.65;23.94
71109;BME280;59614;51.012;-1.648;2022-07-18T13:06:10;101009.59;;;35.96;23.66
71109;BME280;59614;51.012;-1.648;2022-07-18T13:08:35;100994.31;;;35.13;24.69
71109;BME280;59614;51.012;-1.648;2022-07-18T13:11:01;100993.75;;;35.50;24.79
71109;BME280;59614;51.012;-1.648;2022-07-18T13:13:27;100986.50;;;36.45;23.69
71109;BME280;59614;51.012;-1.648;2022-07-18T13:15:52;100981.59;;;36.56;24.11
71109;BME280;59614;51.012;-1.648;2022-07-18T13:18:18;100984.44;;;35.68;24.73
71109;BME280;59614;51.012;-1.648;2022-07-18T13:20:44;100981.78;;;35.43;25.32
71109;BME280;59614;51.012;-1.648;2022-07-18T13:23:09;100986.59;;;35.81;25.92
71109;BME280;59614;51.012;-1.648;2022-07-18T13:25:36;100976.75;;;36.81;23.44
71109;BME280;59614;51.012;-1.648;2022-07-18T13:28:02;100968.09;;;37.07;23.16
71109;BME280;59614;51.012;-1.648;2022-07-18T13:30:27;100975.63;;;36.52;22.14